createdAt,value
2019-03-22T00:02:25.379Z,57.40
2019-03-22T00:04:55.074Z,56.10
2019-03-22T00:07:24.785Z,51.57
2019-03-22T00:09:54.483Z,53.90
2019-03-22T00:12:24.158Z,54.00
2019-03-22T00:14:53.821Z,54.33
2019-03-22T00:17:23.528Z,57.10
2019-03-22T00:19:53.175Z,57.10
2019-03-22T00:22:22.839Z,55.73
2019-03-22T00:24:52.529Z,57.57
2019-03-22T00:27:22.211Z,58.03
2019-03-22T00:29:54.293Z,57.07
2019-03-22T00:32:24.684Z,58.00
2019-03-22T00:34:54.388Z,61.57
2019-03-22T00:37:24.932Z,58.97
2019-03-22T00:39:54.592Z,57.27
2019-03-22T00:42:24.296Z,58.37
2019-03-22T00:44:54.736Z,56.97
2019-03-22T00:47:24.370Z,56.60
2019-03-22T00:49:54.350Z,57.97
2019-03-22T00:52:24.642Z,58.13
2019-03-22T00:54:54.276Z,57.70
2019-03-22T00:57:28.604Z,56.10
2019-03-22T00:59:56.416Z,59.27
2019-03-22T01:02:27.450Z,59.67
2019-03-22T01:04:57.212Z,58.77
2019-03-22T01:07:26.889Z,57.73
2019-03-22T01:09:56.516Z,60.07
2019-03-22T01:12:31.709Z,59.33
2019-03-22T01:15:02.247Z,58.70
2019-03-22T01:17:33.049Z,57.50
2019-03-22T01:20:02.757Z,56.77
2019-03-22T01:22:35.006Z,57.80
2019-03-22T01:25:05.087Z,58.50
2019-03-22T01:27:40.402Z,59.60
2019-03-22T01:30:09.307Z,60.63
2019-03-22T01:32:38.939Z,60.57
2019-03-22T01:35:12.490Z,61.77
2019-03-22T01:37:46.220Z,58.13
2019-03-22T01:43:31.894Z,56.97
2019-03-22T01:46:01.570Z,58.37
2019-03-22T01:48:31.229Z,58.77
2019-03-22T01:51:02.386Z,59.07
2019-03-22T01:53:32.093Z,57.93
2019-03-22T01:56:01.758Z,57.33
2019-03-22T01:58:31.342Z,57.17
2019-03-22T02:01:00.950Z,55.37
2019-03-22T02:03:32.575Z,56.13
2019-03-22T02:06:02.248Z,56.93
2019-03-22T02:08:32.194Z,58.73
2019-03-22T02:11:02.332Z,58.70
2019-03-22T02:13:31.924Z,59.23
2019-03-22T02:16:02.255Z,58.83
2019-03-22T02:18:31.948Z,61.53
2019-03-22T02:21:03.166Z,62.63
2019-03-22T02:23:32.884Z,67.30
2019-03-22T02:26:02.474Z,65.63
2019-03-22T02:28:32.164Z,62.87
2019-03-22T02:31:01.813Z,64.13
2019-03-22T02:33:31.500Z,60.13
2019-03-22T02:36:01.227Z,59.57
2019-03-22T02:38:30.942Z,57.60
2019-03-22T02:41:00.551Z,59.20
2019-03-22T02:43:30.275Z,57.97
2019-03-22T02:45:59.944Z,60.63
2019-03-22T02:48:29.530Z,60.93
2019-03-22T02:50:59.228Z,64.10
2019-03-22T02:53:28.889Z,64.10
2019-03-22T02:55:58.655Z,65.37
2019-03-22T02:58:28.404Z,64.00
2019-03-22T03:00:58.041Z,61.70
2019-03-22T03:03:27.776Z,62.70
2019-03-22T03:05:57.467Z,63.00
2019-03-22T03:08:27.134Z,61.00
2019-03-22T03:10:57.087Z,62.80
2019-03-22T03:13:26.900Z,63.13
2019-03-22T03:15:56.676Z,64.97
2019-03-22T03:18:28.098Z,66.37
2019-03-22T03:20:58.547Z,63.23
2019-03-22T03:23:28.137Z,68.03
2019-03-22T03:25:57.839Z,64.87
2019-03-22T03:28:36.514Z,67.30
2019-03-22T03:30:59.030Z,69.10
2019-03-22T03:33:28.724Z,66.63
2019-03-22T03:35:58.474Z,69.20
2019-03-22T03:38:28.130Z,66.47
2019-03-22T03:40:57.918Z,66.83
2019-03-22T03:43:27.726Z,67.67
2019-03-22T03:45:57.445Z,70.23
2019-03-22T03:48:27.091Z,69.53
2019-03-22T03:50:56.773Z,71.17
2019-03-22T03:53:26.586Z,72.63
2019-03-22T03:55:56.250Z,71.70
2019-03-22T03:58:26.009Z,71.67
2019-03-22T04:00:55.652Z,67.20
2019-03-22T04:03:25.612Z,70.83
2019-03-22T04:05:55.434Z,74.23
2019-03-22T04:08:25.218Z,78.27
2019-03-22T04:10:54.888Z,76.03
2019-03-22T04:13:24.622Z,73.90
2019-03-22T04:15:55.701Z,76.03
2019-03-22T04:18:25.448Z,58.17
2019-03-22T04:20:55.135Z,56.07
2019-03-22T04:23:24.803Z,54.10
2019-03-22T04:25:54.460Z,55.77
2019-03-22T04:28:24.155Z,51.73
2019-03-22T04:30:53.887Z,49.40
2019-03-22T04:33:23.575Z,52.90
2019-03-22T04:35:53.282Z,53.23
2019-03-22T04:38:22.997Z,50.47
2019-03-22T04:40:53.871Z,51.73
2019-03-22T04:43:23.615Z,53.13
2019-03-22T04:45:54.952Z,53.17
2019-03-22T04:48:33.140Z,52.83
2019-03-22T04:51:05.550Z,52.60
2019-03-22T04:53:41.005Z,55.00
2019-03-22T04:56:14.452Z,52.37
2019-03-22T04:58:47.210Z,53.13
2019-03-22T05:01:18.786Z,51.10
2019-03-22T05:03:48.432Z,52.80
2019-03-22T05:06:19.215Z,53.20
2019-03-22T05:08:49.788Z,51.27
2019-03-22T05:11:21.489Z,51.00
2019-03-22T05:13:53.792Z,52.90
2019-03-22T05:16:23.960Z,51.53
2019-03-22T05:18:56.504Z,50.20
2019-03-22T05:21:28.244Z,50.97
2019-03-22T05:24:02.151Z,49.83
2019-03-22T05:26:33.103Z,50.27
2019-03-22T05:29:03.859Z,51.50
2019-03-22T05:32:08.369Z,50.50
2019-03-22T05:34:38.083Z,49.33
2019-03-22T05:37:08.584Z,48.30
2019-03-22T05:39:38.262Z,48.83
2019-03-22T05:42:07.966Z,50.10
2019-03-22T05:44:37.751Z,49.57
2019-03-22T05:47:07.747Z,48.33
2019-03-22T05:49:37.960Z,48.00
2019-03-22T05:52:07.590Z,48.20
2019-03-22T05:54:37.258Z,48.97
2019-03-22T05:57:13.285Z,44.90
2019-03-22T05:59:42.727Z,46.23
2019-03-22T06:02:11.458Z,45.30
2019-03-22T06:04:41.452Z,43.93
2019-03-22T06:07:11.475Z,43.57
2019-03-22T06:09:41.146Z,44.97
2019-03-22T06:12:12.760Z,43.63
2019-03-22T06:14:42.393Z,45.23
2019-03-22T06:17:12.393Z,44.57
2019-03-22T06:19:42.301Z,44.40
2019-03-22T06:22:12.033Z,42.33
2019-03-22T06:24:41.790Z,41.17
2019-03-22T06:27:12.903Z,40.23
2019-03-22T06:29:53.303Z,40.33
2019-03-22T06:32:14.897Z,39.57
2019-03-22T06:34:45.061Z,39.70
2019-03-22T06:37:14.846Z,35.53
2019-03-22T06:39:44.511Z,36.93
2019-03-22T06:42:15.912Z,33.30
2019-03-22T06:44:45.895Z,34.80
2019-03-22T06:47:16.150Z,32.13
2019-03-22T06:49:45.837Z,31.23
2019-03-22T06:52:15.490Z,31.33
2019-03-22T06:54:45.130Z,30.30
2019-03-22T06:57:14.856Z,31.27
2019-03-22T06:59:44.562Z,30.50
2019-03-22T07:02:14.275Z,29.97
2019-03-22T07:04:43.962Z,28.93
2019-03-22T07:07:13.620Z,28.53
2019-03-22T07:09:44.688Z,29.13
2019-03-22T07:12:14.402Z,29.07
2019-03-22T07:14:44.038Z,29.47
2019-03-22T07:17:14.034Z,29.40
2019-03-22T07:19:43.798Z,29.67
2019-03-22T07:22:13.454Z,29.70
2019-03-22T07:24:43.188Z,29.73
2019-03-22T07:27:14.137Z,29.17
2019-03-22T07:29:44.127Z,31.07
2019-03-22T07:32:14.130Z,30.87
2019-03-22T07:34:44.282Z,31.57
2019-03-22T07:37:14.053Z,31.83
2019-03-22T07:39:43.807Z,31.87
2019-03-22T07:42:17.696Z,30.63
2019-03-22T07:45:06.672Z,32.23
2019-03-22T07:47:36.809Z,30.90
2019-03-22T07:50:06.894Z,31.43
2019-03-22T07:52:37.049Z,30.77
2019-03-22T07:55:07.797Z,34.70
2019-03-22T07:57:37.874Z,35.27
2019-03-22T08:00:08.039Z,35.33
2019-03-22T08:02:37.941Z,35.63
2019-03-22T08:05:08.060Z,35.07
2019-03-22T08:07:38.069Z,36.33
2019-03-22T08:10:08.371Z,34.40
2019-03-22T08:12:38.385Z,35.00
2019-03-22T08:15:08.779Z,35.63
2019-03-22T08:17:38.932Z,36.57
2019-03-22T08:20:09.061Z,36.90
2019-03-22T08:22:39.071Z,36.17
2019-03-22T08:25:09.027Z,36.03
2019-03-22T08:27:39.002Z,38.13
2019-03-22T08:30:11.161Z,35.20
2019-03-22T08:32:40.949Z,36.30
2019-03-22T08:35:10.970Z,35.60
2019-03-22T08:37:52.430Z,36.43
2019-03-22T08:40:15.714Z,35.63
2019-03-22T08:42:45.736Z,37.13
2019-03-22T08:45:15.958Z,36.70
2019-03-22T08:47:46.227Z,38.50
2019-03-22T08:50:16.043Z,37.57
2019-03-22T08:52:45.895Z,41.70
2019-03-22T08:55:15.673Z,40.57
2019-03-22T08:57:45.437Z,40.07
2019-03-22T09:00:15.567Z,40.30
2019-03-22T09:02:45.304Z,41.47
2019-03-22T09:05:14.999Z,39.93
2019-03-22T09:07:44.716Z,40.90
2019-03-22T09:10:15.323Z,40.87
2019-03-22T09:12:44.947Z,43.27
2019-03-22T09:15:16.139Z,42.63
2019-03-22T09:17:45.834Z,44.23
2019-03-22T09:20:16.532Z,45.07
2019-03-22T09:22:46.612Z,46.23
2019-03-22T09:25:16.341Z,46.90
2019-03-22T09:27:46.353Z,47.03
2019-03-22T09:30:16.467Z,46.90
2019-03-22T09:32:46.238Z,47.43
2019-03-22T09:35:16.775Z,48.10
2019-03-22T09:37:46.485Z,49.50
2019-03-22T09:40:16.242Z,52.03
2019-03-22T09:42:45.986Z,51.03
2019-03-22T09:45:17.956Z,51.23
2019-03-22T09:47:49.698Z,51.70
2019-03-22T09:50:19.498Z,53.07
2019-03-22T09:52:49.323Z,53.70
2019-03-22T09:55:19.174Z,55.33
2019-03-22T09:57:49.546Z,54.73
2019-03-22T10:00:33.081Z,58.37
2019-03-22T10:03:03.206Z,58.70
2019-03-22T10:05:32.937Z,56.50
2019-03-22T10:08:02.710Z,59.60
2019-03-22T10:10:32.431Z,63.20
2019-03-22T10:13:02.281Z,58.73
2019-03-22T10:15:31.926Z,61.33
2019-03-22T10:18:01.759Z,61.80
2019-03-22T10:20:31.556Z,62.03
2019-03-22T10:23:01.188Z,57.67
2019-03-22T10:25:31.008Z,59.83
2019-03-22T10:28:01.897Z,56.33
2019-03-22T10:30:31.736Z,57.93
2019-03-22T10:33:01.761Z,56.63
2019-03-22T10:35:32.749Z,57.13
2019-03-22T10:38:04.757Z,57.07
2019-03-22T10:40:34.342Z,56.73
2019-03-22T10:43:04.210Z,57.33
2019-03-22T10:45:33.986Z,56.00
2019-03-22T10:48:03.668Z,56.63
2019-03-22T10:50:33.482Z,55.03
2019-03-22T10:53:03.221Z,53.90
2019-03-22T10:55:35.344Z,57.53
2019-03-22T10:58:04.990Z,54.27
2019-03-22T11:00:34.738Z,55.93
2019-03-22T11:03:04.704Z,58.27
2019-03-22T11:05:34.384Z,55.93
2019-03-22T11:08:04.192Z,55.97
2019-03-22T11:10:34.276Z,56.57
2019-03-22T11:13:04.053Z,57.63
2019-03-22T11:15:35.070Z,56.10
2019-03-22T11:18:05.348Z,56.50
2019-03-22T11:20:34.997Z,60.27
2019-03-22T11:23:04.698Z,57.00
2019-03-22T11:25:34.398Z,56.33
2019-03-22T11:28:04.483Z,58.97
2019-03-22T11:30:34.209Z,55.27
2019-03-22T11:33:03.933Z,53.50
2019-03-22T11:35:33.686Z,54.67
2019-03-22T11:38:03.357Z,55.97
2019-03-22T11:40:33.141Z,53.03
2019-03-22T11:43:08.508Z,55.13
2019-03-22T11:45:34.211Z,54.03
2019-03-22T11:48:04.085Z,51.10
2019-03-22T11:50:33.740Z,51.23
2019-03-22T11:53:03.392Z,53.77
2019-03-22T11:55:33.078Z,54.87
2019-03-22T11:58:04.690Z,53.83
2019-03-22T12:00:34.626Z,53.07
2019-03-22T12:03:04.580Z,53.87
2019-03-22T12:05:40.284Z,53.63
2019-03-22T12:08:05.872Z,53.80
2019-03-22T12:10:35.586Z,48.87
2019-03-22T12:13:05.238Z,49.83
2019-03-22T12:15:34.956Z,50.10
2019-03-22T12:18:04.612Z,44.67
2019-03-22T12:20:34.192Z,48.37
2019-03-22T12:23:06.240Z,46.07
2019-03-22T12:25:37.048Z,46.40
2019-03-22T12:28:06.704Z,46.80
2019-03-22T12:30:38.646Z,48.17
2019-03-22T12:33:08.265Z,46.57
2019-03-22T12:35:42.484Z,43.17
2019-03-22T12:38:11.709Z,45.00
2019-03-22T12:40:41.366Z,45.40
2019-03-22T12:43:11.012Z,45.40
2019-03-22T12:45:40.619Z,39.47
2019-03-22T12:48:12.436Z,39.53
2019-03-22T12:50:44.583Z,42.30
2019-03-22T12:53:15.684Z,40.07
2019-03-22T12:55:45.338Z,41.63
2019-03-22T12:58:15.027Z,38.53
2019-03-22T13:00:44.688Z,38.97
2019-03-22T13:03:14.353Z,40.50
2019-03-22T13:05:44.162Z,40.13
2019-03-22T13:08:13.822Z,37.37
2019-03-22T13:10:43.490Z,36.97
2019-03-22T13:13:14.250Z,37.63
2019-03-22T13:15:44.223Z,37.03
2019-03-22T13:25:48.799Z,35.77
2019-03-22T13:28:18.392Z,33.73
2019-03-22T13:30:50.219Z,35.30
2019-03-22T13:33:20.012Z,36.37
2019-03-22T13:35:49.596Z,34.33
2019-03-22T13:38:20.791Z,34.63
2019-03-22T13:40:50.505Z,33.63
2019-03-22T13:43:20.104Z,33.13
2019-03-22T13:45:49.747Z,34.17
2019-03-22T13:48:19.423Z,34.93
2019-03-22T13:50:49.197Z,35.53
2019-03-22T13:53:19.035Z,35.40
2019-03-22T13:55:49.753Z,35.13
2019-03-22T13:58:19.469Z,35.57
2019-03-22T14:00:49.195Z,35.13
2019-03-22T14:03:19.735Z,36.27
2019-03-22T14:05:49.406Z,32.63
2019-03-22T14:08:19.956Z,36.27
2019-03-22T14:10:49.948Z,35.03
2019-03-22T14:13:19.862Z,34.53
2019-03-22T14:15:50.677Z,34.43
2019-03-22T14:18:20.421Z,34.53
2019-03-22T14:20:50.002Z,33.40
2019-03-22T14:23:22.088Z,33.73
2019-03-22T14:25:51.826Z,32.43
2019-03-22T14:28:21.728Z,31.27
2019-03-22T14:30:51.682Z,31.27
2019-03-22T14:33:21.358Z,31.77
2019-03-22T14:35:51.043Z,31.27
2019-03-22T14:38:20.734Z,31.27
2019-03-22T14:40:50.392Z,31.50
2019-03-22T14:43:21.461Z,31.77
2019-03-22T14:45:51.301Z,33.60
2019-03-22T14:48:20.942Z,32.43
2019-03-22T14:50:50.642Z,33.53
2019-03-22T14:53:20.487Z,34.43
2019-03-22T14:55:50.603Z,33.63
2019-03-22T14:58:22.583Z,33.53
2019-03-22T15:00:52.277Z,34.20
2019-03-22T15:03:26.111Z,34.53
2019-03-22T15:05:56.608Z,34.73
2019-03-22T15:08:26.427Z,35.50
2019-03-22T15:10:56.154Z,35.73
2019-03-22T15:13:36.169Z,35.77
2019-03-22T15:16:16.827Z,35.57
2019-03-22T15:18:55.355Z,35.50
2019-03-22T15:21:42.999Z,35.67
2019-03-22T15:24:28.785Z,36.13
2019-03-22T15:27:29.803Z,38.50
2019-03-22T15:30:30.510Z,46.67
2019-03-22T15:33:13.601Z,51.77
2019-03-22T15:36:01.364Z,51.53
2019-03-22T15:39:00.400Z,51.67
2019-03-22T15:41:32.394Z,55.60
2019-03-22T15:44:03.324Z,51.37
2019-03-22T15:46:33.292Z,52.80
2019-03-22T15:49:04.001Z,51.37
2019-03-22T15:51:33.734Z,52.80
2019-03-22T15:54:03.415Z,51.00
2019-03-22T15:56:33.202Z,51.10
2019-03-22T15:59:04.285Z,50.30
2019-03-22T16:01:34.159Z,53.50
2019-03-22T16:04:04.108Z,53.40
2019-03-22T16:06:33.766Z,48.50
2019-03-22T16:09:04.651Z,53.10
2019-03-22T16:11:36.273Z,52.43
2019-03-22T16:14:05.943Z,52.37
2019-03-22T16:16:35.743Z,50.93
2019-03-22T16:19:05.453Z,51.93
2019-03-22T16:21:35.171Z,53.50
2019-03-22T16:24:06.668Z,48.67
2019-03-22T16:26:36.350Z,51.70
2019-03-22T16:29:06.069Z,50.40
2019-03-22T16:31:36.812Z,50.40
2019-03-22T16:34:06.458Z,48.67
2019-03-22T16:36:37.223Z,49.10
2019-03-22T16:39:10.647Z,46.83
2019-03-22T16:41:40.317Z,45.97
2019-03-22T16:44:10.011Z,46.73
2019-03-22T16:46:39.698Z,42.27
2019-03-22T16:49:11.868Z,44.87
2019-03-22T16:51:41.525Z,42.50
2019-03-22T16:54:12.007Z,43.10
2019-03-22T16:56:42.931Z,42.03
2019-03-22T16:59:12.566Z,38.50
2019-03-22T17:01:42.243Z,41.10
2019-03-22T17:04:11.912Z,42.33
2019-03-22T17:06:41.564Z,44.43
2019-03-22T17:09:11.197Z,42.60
2019-03-22T17:11:40.854Z,42.07
2019-03-22T17:14:14.648Z,44.23
2019-03-22T17:16:47.386Z,44.33
2019-03-22T17:19:19.168Z,43.40
2019-03-22T17:21:49.218Z,47.30
2019-03-22T17:24:19.010Z,43.63
2019-03-22T17:26:48.850Z,44.77
2019-03-22T17:29:19.640Z,45.30
2019-03-22T17:31:49.641Z,45.60
2019-03-22T17:34:19.238Z,45.70
2019-03-22T17:36:51.134Z,46.97
2019-03-22T17:39:20.720Z,46.77
2019-03-22T17:41:50.404Z,45.60
2019-03-22T17:44:20.046Z,44.17
2019-03-22T17:46:49.975Z,45.03
2019-03-22T17:49:22.019Z,45.23
2019-03-22T17:51:52.783Z,42.23
2019-03-22T17:54:25.468Z,41.10
2019-03-22T17:56:59.307Z,44.07
2019-03-22T17:59:31.053Z,47.07
2019-03-22T18:02:02.098Z,44.47
2019-03-22T18:04:35.373Z,42.80
2019-03-22T18:07:05.443Z,46.10
2019-03-22T18:09:36.683Z,46.80
2019-03-22T18:12:06.353Z,44.20
2019-03-22T18:14:36.011Z,48.43
2019-03-22T18:17:05.764Z,40.70
2019-03-22T18:19:35.658Z,48.60
2019-03-22T18:22:05.381Z,42.63
2019-03-22T18:24:35.200Z,45.67
2019-03-22T18:27:05.465Z,48.10
2019-03-22T18:29:41.181Z,44.37
2019-03-22T18:32:11.067Z,49.80
2019-03-22T18:34:40.978Z,47.13
2019-03-22T18:37:10.729Z,47.70
2019-03-22T18:39:44.998Z,49.27
2019-03-22T18:42:14.566Z,49.53
2019-03-22T18:44:45.807Z,47.83
2019-03-22T18:47:15.386Z,48.10
2019-03-22T18:49:45.022Z,45.07
2019-03-22T18:52:14.681Z,46.23
2019-03-22T18:54:44.254Z,46.87
2019-03-22T18:57:13.946Z,47.73
2019-03-22T18:59:43.895Z,46.13
2019-03-22T19:02:13.896Z,46.10
2019-03-22T19:04:44.299Z,43.90
2019-03-22T19:07:14.611Z,43.70
2019-03-22T19:09:45.961Z,42.43
2019-03-22T19:12:15.534Z,44.27
2019-03-22T19:14:45.331Z,46.67
2019-03-22T19:17:14.899Z,43.97
2019-03-22T19:19:44.579Z,47.13
2019-03-22T19:22:14.311Z,46.73
2019-03-22T19:24:44.100Z,43.20
2019-03-22T19:27:13.713Z,43.97
2019-03-22T19:29:44.566Z,45.03
2019-03-22T19:32:14.199Z,46.10
2019-03-22T19:34:54.602Z,48.23
2019-03-22T19:37:23.726Z,45.67
2019-03-22T19:39:54.503Z,44.83
2019-03-22T19:42:24.289Z,49.80
2019-03-22T19:44:54.494Z,46.27
2019-03-22T19:47:26.048Z,47.73
2019-03-22T19:50:01.126Z,46.23
2019-03-22T19:52:30.821Z,47.40
2019-03-22T19:55:00.822Z,51.03
2019-03-22T19:57:30.528Z,46.80
2019-03-22T20:00:00.339Z,47.43
2019-03-22T20:02:30.109Z,50.07
2019-03-22T20:05:04.680Z,48.77
2019-03-22T20:07:31.528Z,52.27
2019-03-22T20:10:04.932Z,51.03
2019-03-22T20:12:36.565Z,49.87
2019-03-22T20:15:11.378Z,49.63
2019-03-22T20:17:43.118Z,53.13
2019-03-22T20:20:15.625Z,48.60
2019-03-22T20:22:46.176Z,52.67
2019-03-22T20:25:15.807Z,48.57
2019-03-22T20:27:45.459Z,47.83
2019-03-22T20:30:15.451Z,48.43
2019-03-22T20:32:45.126Z,52.33
2019-03-22T20:35:16.897Z,48.83
2019-03-22T20:37:47.075Z,48.70
2019-03-22T20:40:16.939Z,51.93
2019-03-22T20:42:46.584Z,49.23
2019-03-22T20:45:24.228Z,47.53
2019-03-22T20:47:47.672Z,48.17
2019-03-22T20:50:18.214Z,47.17
2019-03-22T20:52:47.923Z,45.63
2019-03-22T20:55:17.565Z,50.50
2019-03-22T20:57:47.225Z,49.20
2019-03-22T21:00:17.208Z,51.27
2019-03-22T21:02:47.232Z,48.60
2019-03-22T21:05:26.421Z,50.30
2019-03-22T21:07:49.890Z,45.03
2019-03-22T21:10:19.567Z,47.97
2019-03-22T21:12:49.129Z,44.67
2019-03-22T21:15:24.309Z,45.77
2019-03-22T21:17:50.252Z,47.17
2019-03-22T21:20:19.901Z,50.57
2019-03-22T21:22:49.543Z,48.83
2019-03-22T21:25:19.604Z,47.53
2019-03-22T21:27:49.254Z,46.80
2019-03-22T21:30:19.028Z,47.77
2019-03-22T21:32:49.169Z,48.30
2019-03-22T21:35:22.820Z,47.50
2019-03-22T21:37:50.343Z,47.07
2019-03-22T21:40:20.065Z,46.33
2019-03-22T21:42:50.652Z,48.33
2019-03-22T21:45:23.765Z,48.43
2019-03-22T21:48:02.135Z,50.37
2019-03-22T21:50:38.455Z,50.77
2019-03-22T21:53:17.683Z,51.20
2019-03-22T21:55:54.217Z,48.67
2019-03-22T21:58:30.162Z,52.97
2019-03-22T22:01:00.510Z,49.60
2019-03-22T22:03:30.176Z,41.03
2019-03-22T22:06:01.275Z,45.73
2019-03-22T22:08:34.295Z,47.97
2019-03-22T22:11:06.908Z,48.27
2019-03-22T22:13:36.820Z,46.23
2019-03-22T22:16:06.864Z,45.80
2019-03-22T22:18:40.577Z,46.30
2019-03-22T22:21:10.505Z,45.03
2019-03-22T22:23:40.159Z,45.10
2019-03-22T22:26:10.992Z,43.37
2019-03-22T22:28:40.938Z,43.13
2019-03-22T22:31:12.697Z,41.40
2019-03-22T22:33:42.595Z,43.37
2019-03-22T22:36:12.407Z,40.80
2019-03-22T22:38:42.075Z,44.33
2019-03-22T22:41:12.185Z,42.00
2019-03-22T22:43:42.304Z,43.53
2019-03-22T22:46:13.160Z,44.77
2019-03-22T22:48:42.795Z,42.13
2019-03-22T22:51:12.513Z,44.60
2019-03-22T22:53:42.383Z,43.47
2019-03-22T22:56:12.050Z,46.00
2019-03-22T22:58:41.734Z,44.53
2019-03-22T23:01:11.481Z,45.10
2019-03-22T23:03:41.233Z,44.20
2019-03-22T23:06:10.829Z,43.00
2019-03-22T23:08:40.492Z,40.77
2019-03-22T23:11:10.627Z,40.23
2019-03-22T23:13:42.648Z,40.50
2019-03-22T23:16:12.393Z,41.50
2019-03-22T23:18:42.376Z,41.43
2019-03-22T23:21:12.019Z,42.57
2019-03-22T23:23:41.623Z,39.97
2019-03-22T23:26:11.329Z,39.37
2019-03-22T23:28:41.460Z,38.97
2019-03-22T23:31:11.190Z,38.13
2019-03-22T23:33:41.207Z,40.00
2019-03-22T23:36:19.744Z,41.93
2019-03-22T23:38:42.360Z,39.23
2019-03-22T23:41:11.942Z,39.77
2019-03-22T23:43:41.609Z,40.93
2019-03-22T23:46:11.257Z,40.70
2019-03-22T23:48:41.826Z,39.23
2019-03-22T23:51:11.511Z,40.03
2019-03-22T23:53:41.317Z,38.87
2019-03-22T23:56:11.022Z,39.57
2019-03-22T23:58:40.693Z,42.40
